createdAt,value
2019-03-08T00:00:03.202Z,0
2019-03-08T00:01:03.167Z,0
2019-03-08T00:02:03.165Z,0
2019-03-08T00:03:03.138Z,0
2019-03-08T00:04:03.674Z,0
2019-03-08T00:05:03.086Z,0
2019-03-08T00:06:03.074Z,0
2019-03-08T00:07:03.057Z,0
2019-03-08T00:08:03.032Z,0
2019-03-08T00:09:02.762Z,0
2019-03-08T00:10:02.963Z,0
2019-03-08T00:11:02.982Z,0
2019-03-08T00:12:04.652Z,0
2019-03-08T00:13:02.934Z,0
2019-03-08T00:14:02.877Z,0
2019-03-08T00:15:02.876Z,0
2019-03-08T00:16:02.853Z,0
2019-03-08T00:17:02.831Z,0
2019-03-08T00:18:02.794Z,0
2019-03-08T00:19:02.792Z,0
2019-03-08T00:20:02.908Z,0
2019-03-08T00:21:02.761Z,0
2019-03-08T00:22:02.719Z,0
2019-03-08T00:23:02.698Z,0
2019-03-08T00:24:02.684Z,0
2019-03-08T00:25:02.685Z,0
2019-03-08T00:26:04.314Z,0
2019-03-08T00:27:02.629Z,0
2019-03-08T00:28:03.328Z,0
2019-03-08T00:29:02.574Z,0
2019-03-08T00:30:02.753Z,0
2019-03-08T00:31:02.516Z,0
2019-03-08T00:32:02.509Z,0
2019-03-08T00:33:02.482Z,0
2019-03-08T00:34:02.471Z,0
2019-03-08T00:35:02.561Z,0
2019-03-08T00:36:02.818Z,0
2019-03-08T00:37:02.397Z,0
2019-03-08T00:38:02.415Z,0
2019-03-08T00:39:02.377Z,0
2019-03-08T00:40:02.345Z,0
2019-03-08T00:41:02.320Z,0
2019-03-08T00:42:02.278Z,0
2019-03-08T00:43:02.278Z,0
2019-03-08T00:44:02.752Z,0
2019-03-08T00:45:02.258Z,0
2019-03-08T00:46:02.225Z,0
2019-03-08T00:47:02.196Z,0
2019-03-08T00:48:02.168Z,0
2019-03-08T00:49:02.149Z,0
2019-03-08T00:50:02.115Z,0
2019-03-08T00:51:02.099Z,0
2019-03-08T00:52:02.544Z,0
2019-03-08T00:53:02.052Z,0
2019-03-08T00:54:02.027Z,0
2019-03-08T00:55:02.010Z,0
2019-03-08T00:56:01.995Z,0
2019-03-08T00:57:01.973Z,0
2019-03-08T00:58:01.958Z,0
2019-03-08T00:59:01.917Z,0
2019-03-08T01:00:02.137Z,0
2019-03-08T01:01:01.892Z,0
2019-03-08T01:02:01.905Z,0
2019-03-08T01:03:01.840Z,0
2019-03-08T01:04:01.807Z,0
2019-03-08T01:05:01.806Z,0
2019-03-08T01:06:01.784Z,0
2019-03-08T01:07:01.530Z,0
2019-03-08T01:08:02.227Z,0
2019-03-08T01:09:01.708Z,0
2019-03-08T01:10:01.744Z,0
2019-03-08T01:11:01.689Z,0
2019-03-08T01:12:01.658Z,0
2019-03-08T01:13:01.637Z,0
2019-03-08T01:14:01.584Z,0
2019-03-08T01:15:01.603Z,0
2019-03-08T01:16:02.024Z,0
2019-03-08T01:17:01.545Z,0
2019-03-08T01:18:01.273Z,0
2019-03-08T01:19:01.509Z,0
2019-03-08T01:20:01.504Z,0
2019-03-08T01:21:01.458Z,0
2019-03-08T01:22:01.417Z,0
2019-03-08T01:23:01.609Z,0
2019-03-08T01:24:01.400Z,0
2019-03-08T01:25:01.378Z,0
2019-03-08T01:26:01.344Z,0
2019-03-08T01:27:01.312Z,0
2019-03-08T01:28:01.301Z,0
2019-03-08T01:29:01.399Z,0
2019-03-08T01:30:01.267Z,0
2019-03-08T01:31:01.221Z,0
2019-03-08T01:32:01.719Z,0
2019-03-08T01:33:01.183Z,0
2019-03-08T01:34:01.201Z,0
2019-03-08T01:35:01.159Z,0
2019-03-08T01:36:01.134Z,0
2019-03-08T01:37:01.100Z,0
2019-03-08T01:38:01.064Z,0
2019-03-08T01:39:01.062Z,0
2019-03-08T01:40:01.552Z,0
2019-03-08T01:41:01.026Z,0
2019-03-08T01:42:01.015Z,0
2019-03-08T01:43:01.025Z,0
2019-03-08T01:44:00.720Z,0
2019-03-08T01:45:00.937Z,0
2019-03-08T01:46:00.921Z,0
2019-03-08T01:47:00.885Z,0
2019-03-08T01:48:01.324Z,0
2019-03-08T01:49:00.867Z,0
2019-03-08T01:50:00.838Z,0
2019-03-08T01:51:00.564Z,0
2019-03-08T01:52:00.789Z,0
2019-03-08T01:53:00.755Z,0
2019-03-08T01:54:00.755Z,0
2019-03-08T01:55:00.728Z,0
2019-03-08T01:56:00.877Z,0
2019-03-08T01:57:00.667Z,0
2019-03-08T01:58:00.677Z,0
2019-03-08T01:59:00.653Z,0
2019-03-08T02:00:00.613Z,0
2019-03-08T02:01:00.605Z,0
2019-03-08T02:02:00.560Z,0
2019-03-08T02:03:00.546Z,0
2019-03-08T02:04:00.944Z,0
2019-03-08T02:05:00.512Z,0
2019-03-08T02:06:00.466Z,0
2019-03-08T02:07:00.474Z,0
2019-03-08T02:08:00.433Z,0
2019-03-08T02:09:00.423Z,0
2019-03-08T02:10:00.389Z,0
2019-03-08T02:11:00.360Z,0
2019-03-08T02:12:00.834Z,0
2019-03-08T02:13:00.330Z,0
2019-03-08T02:14:00.313Z,0
2019-03-08T02:15:00.280Z,0
2019-03-08T02:16:00.299Z,0
2019-03-08T02:17:00.238Z,0
2019-03-08T02:18:00.230Z,0
2019-03-08T02:19:00.182Z,0
2019-03-08T02:20:00.557Z,0
2019-03-08T02:21:09.025Z,0
2019-03-08T02:22:00.159Z,0
2019-03-08T02:23:00.134Z,0
2019-03-08T02:24:00.088Z,0
2019-03-08T02:25:00.228Z,0
2019-03-08T02:26:00.068Z,0
2019-03-08T02:26:59.779Z,0
2019-03-08T02:28:00.555Z,0
2019-03-08T02:28:59.970Z,0
2019-03-08T02:29:59.954Z,0
2019-03-08T02:30:59.980Z,0
2019-03-08T02:31:59.923Z,0
2019-03-08T02:32:59.891Z,0
2019-03-08T02:33:59.858Z,0
2019-03-08T02:34:59.982Z,0
2019-03-08T02:36:00.252Z,0
2019-03-08T02:36:59.819Z,0
2019-03-08T02:37:59.770Z,0
2019-03-08T02:38:59.778Z,0
2019-03-08T02:39:59.749Z,0
2019-03-08T02:40:59.739Z,0
2019-03-08T02:41:59.695Z,0
2019-03-08T02:42:59.699Z,0
2019-03-08T02:44:00.094Z,0
2019-03-08T02:44:59.645Z,0
2019-03-08T02:45:59.607Z,0
2019-03-08T02:46:59.621Z,0
2019-03-08T02:47:59.695Z,0
2019-03-08T02:48:59.545Z,0
2019-03-08T02:49:59.550Z,0
2019-03-08T02:50:59.507Z,0
2019-03-08T02:52:00.012Z,0
2019-03-08T02:52:59.460Z,0
2019-03-08T02:53:59.447Z,0
2019-03-08T02:54:59.415Z,0
2019-03-08T02:55:59.408Z,0
2019-03-08T02:56:59.366Z,0
2019-03-08T02:57:59.369Z,0
2019-03-08T02:58:59.335Z,0
2019-03-08T02:59:59.499Z,0
2019-03-08T03:00:59.287Z,0
2019-03-08T03:01:59.271Z,0
2019-03-08T03:02:59.249Z,0
2019-03-08T03:03:59.228Z,0
2019-03-08T03:04:58.951Z,0
2019-03-08T03:05:59.186Z,0
2019-03-08T03:06:59.176Z,0
2019-03-08T03:07:59.580Z,0
2019-03-08T03:08:59.128Z,0
2019-03-08T03:09:59.091Z,0
2019-03-08T03:10:59.080Z,0
2019-03-08T03:11:59.085Z,0
2019-03-08T03:12:59.038Z,0
2019-03-08T03:13:59.007Z,0
2019-03-08T03:14:58.740Z,0
2019-03-08T03:15:59.272Z,0
2019-03-08T03:16:58.943Z,0
2019-03-08T03:17:58.921Z,0
2019-03-08T03:18:58.882Z,0
2019-03-08T03:19:58.975Z,0
2019-03-08T03:20:58.860Z,0
2019-03-08T03:21:58.822Z,0
2019-03-08T03:22:58.832Z,0
2019-03-08T03:23:59.014Z,0
2019-03-08T03:24:58.790Z,0
2019-03-08T03:25:58.741Z,0
2019-03-08T03:26:58.736Z,0
2019-03-08T03:27:58.703Z,0
2019-03-08T03:28:58.682Z,0
2019-03-08T03:29:58.642Z,0
2019-03-08T03:30:58.650Z,0
2019-03-08T03:31:59.224Z,0
2019-03-08T03:32:58.631Z,0
2019-03-08T03:33:58.572Z,0
2019-03-08T03:34:58.555Z,0
2019-03-08T03:35:58.528Z,0
2019-03-08T03:36:58.513Z,0
2019-03-08T03:37:58.517Z,0
2019-03-08T03:38:58.463Z,0
2019-03-08T03:39:58.862Z,0
2019-03-08T03:40:58.411Z,0
2019-03-08T03:41:58.404Z,0
2019-03-08T03:42:58.396Z,0
2019-03-08T03:43:58.351Z,0
2019-03-08T03:44:58.331Z,0
2019-03-08T03:45:58.328Z,0
2019-03-08T03:46:58.291Z,0
2019-03-08T03:47:58.854Z,0
2019-03-08T03:48:58.246Z,0
2019-03-08T03:49:58.227Z,0
2019-03-08T03:50:58.209Z,0
2019-03-08T03:51:58.180Z,0
2019-03-08T03:52:58.166Z,0
2019-03-08T03:53:58.139Z,0
2019-03-08T03:54:58.137Z,0
2019-03-08T03:55:58.619Z,0
2019-03-08T03:56:58.384Z,0
2019-03-08T03:57:58.056Z,0
2019-03-08T03:58:58.046Z,0
2019-03-08T03:59:58.020Z,0
2019-03-08T04:00:57.993Z,0
2019-03-08T04:01:57.946Z,0
2019-03-08T04:02:57.948Z,0
2019-03-08T04:03:58.323Z,0
2019-03-08T04:04:57.915Z,0
2019-03-08T04:05:57.882Z,0
2019-03-08T04:06:57.850Z,0
2019-03-08T04:07:57.857Z,0
2019-03-08T04:08:57.826Z,0
2019-03-08T04:09:57.811Z,0
2019-03-08T04:10:57.765Z,0
2019-03-08T04:11:58.302Z,0
2019-03-08T04:12:57.722Z,0
2019-03-08T04:13:57.720Z,0
2019-03-08T04:14:57.690Z,0
2019-03-08T04:15:57.680Z,0
2019-03-08T04:16:57.651Z,0
2019-03-08T04:17:57.432Z,0
2019-03-08T04:18:57.608Z,0
2019-03-08T04:19:58.183Z,0
2019-03-08T04:20:57.566Z,0
2019-03-08T04:21:57.541Z,0
2019-03-08T04:22:57.522Z,0
2019-03-08T04:23:57.485Z,0
2019-03-08T04:24:57.463Z,0
2019-03-08T04:25:57.440Z,0
2019-03-08T04:26:57.433Z,0
2019-03-08T04:27:58.021Z,0
2019-03-08T04:28:57.397Z,0
2019-03-08T04:29:59.073Z,0
2019-03-08T04:30:57.348Z,0
2019-03-08T04:31:57.323Z,0
2019-03-08T04:32:57.308Z,0
2019-03-08T04:33:57.285Z,0
2019-03-08T04:34:57.250Z,0
2019-03-08T04:35:57.693Z,0
2019-03-08T04:36:57.229Z,0
2019-03-08T04:37:57.185Z,0
2019-03-08T04:38:57.157Z,0
2019-03-08T04:39:57.158Z,0
2019-03-08T04:40:57.158Z,0
2019-03-08T04:41:57.110Z,0
2019-03-08T04:42:57.077Z,0
2019-03-08T04:43:57.334Z,0
2019-03-08T04:44:57.028Z,0
2019-03-08T04:45:57.030Z,0
2019-03-08T04:46:57.016Z,0
2019-03-08T04:47:56.994Z,0
2019-03-08T04:48:56.699Z,0
2019-03-08T04:49:56.948Z,0
2019-03-08T04:50:56.903Z,0
2019-03-08T04:51:58.378Z,0
2019-03-08T04:52:56.861Z,0
2019-03-08T04:53:56.837Z,0
2019-03-08T04:54:56.872Z,0
2019-03-08T04:55:56.889Z,0
2019-03-08T04:56:56.780Z,0
2019-03-08T04:57:56.754Z,0
2019-03-08T04:58:56.744Z,0
2019-03-08T04:59:57.136Z,0
2019-03-08T05:00:56.699Z,0
2019-03-08T05:01:56.660Z,0
2019-03-08T05:02:56.649Z,0
2019-03-08T05:03:56.631Z,0
2019-03-08T05:04:56.611Z,0
2019-03-08T05:05:56.601Z,0
2019-03-08T05:06:56.563Z,0
2019-03-08T05:07:58.108Z,0
2019-03-08T05:08:57.847Z,0
2019-03-08T05:09:56.499Z,0
2019-03-08T05:10:56.489Z,0
2019-03-08T05:11:56.444Z,0
2019-03-08T05:12:56.427Z,0
2019-03-08T05:13:56.440Z,0
2019-03-08T05:14:56.553Z,0
2019-03-08T05:15:56.591Z,0
2019-03-08T05:16:56.358Z,0
2019-03-08T05:17:56.321Z,0
2019-03-08T05:18:56.322Z,0
2019-03-08T05:19:56.279Z,0
2019-03-08T05:20:56.255Z,0
2019-03-08T05:21:56.218Z,0
2019-03-08T05:22:56.407Z,0
2019-03-08T05:23:56.459Z,0
2019-03-08T05:24:56.179Z,0
2019-03-08T05:25:56.144Z,0
2019-03-08T05:26:56.185Z,0
2019-03-08T05:27:56.410Z,0
2019-03-08T05:28:56.392Z,0
2019-03-08T05:29:56.387Z,0
2019-03-08T05:30:56.301Z,0
2019-03-08T05:31:56.617Z,0
2019-03-08T05:32:56.172Z,0
2019-03-08T05:33:56.182Z,0
2019-03-08T05:34:56.137Z,0
2019-03-08T05:35:56.123Z,0
2019-03-08T05:36:56.093Z,0
2019-03-08T05:37:56.093Z,0
2019-03-08T05:38:56.072Z,0
2019-03-08T05:39:56.129Z,0
2019-03-08T05:40:55.822Z,0
2019-03-08T05:41:55.791Z,0
2019-03-08T05:42:55.851Z,0
2019-03-08T05:43:55.786Z,0
2019-03-08T05:44:55.736Z,0
2019-03-08T05:45:55.695Z,0
2019-03-08T05:46:55.923Z,0
2019-03-08T05:47:55.727Z,0
2019-03-08T05:48:55.656Z,0
2019-03-08T05:49:55.626Z,0
2019-03-08T05:50:55.618Z,0
2019-03-08T05:51:55.582Z,0
2019-03-08T05:52:56.652Z,0
2019-03-08T05:53:55.550Z,0
2019-03-08T05:54:55.905Z,4
2019-03-08T05:55:55.777Z,0
2019-03-08T05:56:55.499Z,4
2019-03-08T05:57:55.216Z,4
2019-03-08T05:58:55.418Z,4
2019-03-08T05:59:55.473Z,4
2019-03-08T06:00:55.446Z,4
2019-03-08T06:01:55.503Z,4
2019-03-08T06:02:56.147Z,4
2019-03-08T06:03:55.479Z,8
2019-03-08T06:04:55.294Z,8
2019-03-08T06:05:55.395Z,8
2019-03-08T06:06:56.471Z,8
2019-03-08T06:07:56.598Z,12
2019-03-08T06:08:56.562Z,12
2019-03-08T06:09:55.519Z,8
2019-03-08T06:10:55.806Z,12
2019-03-08T06:11:55.687Z,12
2019-03-08T06:12:55.592Z,12
2019-03-08T06:13:55.344Z,12
2019-03-08T06:14:55.323Z,12
2019-03-08T06:15:55.308Z,12
2019-03-08T06:16:55.167Z,16
2019-03-08T06:17:56.496Z,16
2019-03-08T06:18:55.831Z,16
2019-03-08T06:19:55.206Z,16
2019-03-08T06:20:55.250Z,16
2019-03-08T06:21:55.166Z,16
2019-03-08T06:22:55.159Z,20
2019-03-08T06:23:55.112Z,16
2019-03-08T06:24:55.110Z,28
2019-03-08T06:25:55.059Z,24
2019-03-08T06:26:54.785Z,32
2019-03-08T06:27:54.988Z,44
2019-03-08T06:28:54.985Z,32
2019-03-08T06:29:54.963Z,40
2019-03-08T06:30:55.030Z,60
2019-03-08T06:31:55.019Z,56
2019-03-08T06:32:55.064Z,56
2019-03-08T06:33:55.445Z,56
2019-03-08T06:34:54.924Z,68
2019-03-08T06:35:54.839Z,68
2019-03-08T06:36:54.925Z,80
2019-03-08T06:37:54.754Z,84
2019-03-08T06:38:54.764Z,96
2019-03-08T06:39:54.796Z,96
2019-03-08T06:40:54.471Z,88
2019-03-08T06:41:55.087Z,92
2019-03-08T06:42:54.338Z,84
2019-03-08T06:43:54.522Z,76
2019-03-08T06:44:54.510Z,84
2019-03-08T06:45:54.490Z,76
2019-03-08T06:46:54.237Z,88
2019-03-08T06:47:54.136Z,80
2019-03-08T06:48:54.352Z,84
2019-03-08T06:49:54.749Z,84
2019-03-08T06:50:54.319Z,84
2019-03-08T06:51:54.293Z,84
2019-03-08T06:52:54.583Z,84
2019-03-08T06:53:54.239Z,80
2019-03-08T06:54:54.249Z,80
2019-03-08T06:55:54.210Z,72
2019-03-08T06:56:54.419Z,76
2019-03-08T06:57:54.123Z,84
2019-03-08T06:58:54.285Z,92
2019-03-08T06:59:54.066Z,88
2019-03-08T07:00:54.328Z,96
2019-03-08T07:01:54.319Z,96
2019-03-08T07:02:54.138Z,112
2019-03-08T07:03:54.041Z,124
2019-03-08T07:04:54.457Z,132
2019-03-08T07:05:53.957Z,148
2019-03-08T07:06:53.950Z,156
2019-03-08T07:07:53.725Z,144
2019-03-08T07:08:53.951Z,136
2019-03-08T07:09:53.914Z,140
2019-03-08T07:10:53.964Z,124
2019-03-08T07:11:53.861Z,104
2019-03-08T07:13:02.696Z,96
2019-03-08T07:13:53.825Z,76
2019-03-08T07:14:53.798Z,84
2019-03-08T07:15:53.714Z,84
2019-03-08T07:16:54.066Z,92
2019-03-08T07:17:53.764Z,84
2019-03-08T07:18:54.290Z,84
2019-03-08T07:19:53.687Z,76
2019-03-08T07:20:54.251Z,68
2019-03-08T07:21:53.670Z,64
2019-03-08T07:22:53.765Z,72
2019-03-08T07:23:53.598Z,72
2019-03-08T07:24:53.578Z,76
2019-03-08T07:25:59.282Z,84
2019-03-08T07:26:53.966Z,88
2019-03-08T07:27:53.518Z,80
2019-03-08T07:28:54.387Z,76
2019-03-08T07:29:53.266Z,68
2019-03-08T07:31:02.335Z,68
2019-03-08T07:31:53.456Z,72
2019-03-08T07:32:53.550Z,76
2019-03-08T07:34:00.973Z,80
2019-03-08T07:34:53.451Z,84
2019-03-08T07:35:53.473Z,88
2019-03-08T07:36:54.096Z,80
2019-03-08T07:37:54.311Z,84
2019-03-08T07:38:53.376Z,84
2019-03-08T07:39:54.140Z,88
2019-03-08T07:40:54.039Z,100
2019-03-08T07:41:53.107Z,108
2019-03-08T07:42:53.373Z,112
2019-03-08T07:43:53.302Z,104
2019-03-08T07:44:53.861Z,88
2019-03-08T07:45:53.142Z,92
2019-03-08T07:46:53.115Z,92
2019-03-08T07:47:53.210Z,104
2019-03-08T07:48:53.091Z,108
2019-03-08T07:49:53.854Z,100
2019-03-08T07:50:54.123Z,96
2019-03-08T07:51:53.010Z,96
2019-03-08T07:52:53.344Z,104
2019-03-08T07:53:52.700Z,120
2019-03-08T07:54:59.746Z,136
2019-03-08T07:55:53.668Z,160
2019-03-08T07:56:53.495Z,152
2019-03-08T07:57:52.961Z,156
2019-03-08T07:58:53.019Z,160
2019-03-08T08:00:00.824Z,124
2019-03-08T08:00:53.474Z,136
2019-03-08T08:01:52.784Z,164
2019-03-08T08:02:52.763Z,160
2019-03-08T08:03:52.849Z,168
2019-03-08T08:04:52.716Z,160
2019-03-08T08:06:02.249Z,208
2019-03-08T08:06:52.659Z,168
2019-03-08T08:07:52.644Z,176
2019-03-08T08:08:58.996Z,228
2019-03-08T08:09:52.626Z,228
2019-03-08T08:10:53.147Z,188
2019-03-08T08:11:52.561Z,216
2019-03-08T08:12:52.301Z,156
2019-03-08T08:13:52.527Z,144
2019-03-08T08:14:52.486Z,156
2019-03-08T08:15:52.640Z,184
2019-03-08T08:16:53.060Z,204
2019-03-08T08:17:52.199Z,188
2019-03-08T08:18:52.529Z,184
2019-03-08T08:19:52.394Z,276
2019-03-08T08:20:52.366Z,300
2019-03-08T08:21:52.367Z,444
2019-03-08T08:22:52.339Z,468
2019-03-08T08:23:52.567Z,368
2019-03-08T08:24:52.636Z,404
2019-03-08T08:25:52.274Z,364
2019-03-08T08:26:52.240Z,524
2019-03-08T08:27:52.685Z,468
2019-03-08T08:28:58.450Z,444
2019-03-08T08:29:51.959Z,472
2019-03-08T08:30:52.292Z,492
2019-03-08T08:31:52.131Z,556
2019-03-08T08:32:52.444Z,464
2019-03-08T08:33:52.227Z,332
2019-03-08T08:34:52.072Z,400
2019-03-08T08:35:52.087Z,456
2019-03-08T08:36:52.015Z,472
2019-03-08T08:37:52.004Z,564
2019-03-08T08:38:51.757Z,496
2019-03-08T08:39:51.964Z,512
2019-03-08T08:40:52.287Z,544
2019-03-08T08:41:52.276Z,652
2019-03-08T08:42:51.894Z,712
2019-03-08T08:43:51.904Z,528
2019-03-08T08:44:53.104Z,432
2019-03-08T08:45:52.006Z,380
2019-03-08T08:46:52.452Z,312
2019-03-08T08:47:51.811Z,516
2019-03-08T08:48:52.865Z,396
2019-03-08T08:50:01.575Z,488
2019-03-08T08:50:51.751Z,512
2019-03-08T08:51:51.745Z,476
2019-03-08T08:52:51.441Z,392
2019-03-08T08:53:52.397Z,428
2019-03-08T08:54:51.631Z,432
2019-03-08T08:55:51.619Z,544
2019-03-08T08:56:52.267Z,512
2019-03-08T08:57:51.576Z,492
2019-03-08T08:58:51.854Z,516
2019-03-08T08:59:51.549Z,516
2019-03-08T09:00:51.529Z,524
2019-03-08T09:01:51.499Z,552
2019-03-08T09:02:51.467Z,528
2019-03-08T09:03:51.444Z,240
2019-03-08T09:04:51.937Z,536
2019-03-08T09:05:51.421Z,572
2019-03-08T09:06:51.373Z,592
2019-03-08T09:07:51.367Z,492
2019-03-08T09:08:52.195Z,556
2019-03-08T09:09:51.319Z,568
2019-03-08T09:10:51.875Z,552
2019-03-08T09:11:59.778Z,312
2019-03-08T09:12:51.631Z,340
2019-03-08T09:13:51.503Z,336
2019-03-08T09:14:51.965Z,756
2019-03-08T09:15:51.193Z,740
2019-03-08T09:16:51.195Z,768
2019-03-08T09:17:51.124Z,944
2019-03-08T09:18:51.129Z,604
2019-03-08T09:19:51.096Z,508
2019-03-08T09:20:51.832Z,556
2019-03-08T09:21:51.181Z,464
2019-03-08T09:22:51.036Z,672
2019-03-08T09:23:51.013Z,544
2019-03-08T09:24:51.009Z,504
2019-03-08T09:25:50.987Z,652
2019-03-08T09:26:50.942Z,404
2019-03-08T09:27:50.935Z,352
2019-03-08T09:28:51.610Z,528
2019-03-08T09:29:50.897Z,584
2019-03-08T09:30:50.928Z,576
2019-03-08T09:31:50.847Z,512
2019-03-08T09:32:58.839Z,472
2019-03-08T09:33:51.360Z,428
2019-03-08T09:34:50.780Z,280
2019-03-08T09:35:51.312Z,416
2019-03-08T09:36:51.318Z,368
2019-03-08T09:37:50.779Z,352
2019-03-08T09:38:50.725Z,308
2019-03-08T09:39:50.691Z,392
2019-03-08T09:40:50.700Z,488
2019-03-08T09:41:50.639Z,412
2019-03-08T09:42:50.705Z,464
2019-03-08T09:43:50.611Z,432
2019-03-08T09:44:50.921Z,364
2019-03-08T09:45:50.515Z,280
2019-03-08T09:46:51.818Z,224
2019-03-08T09:47:50.842Z,172
2019-03-08T09:48:55.919Z,180
2019-03-08T09:49:50.739Z,264
2019-03-08T09:50:50.695Z,488
2019-03-08T09:51:50.409Z,524
2019-03-08T09:52:50.750Z,400
2019-03-08T09:53:50.445Z,332
2019-03-08T09:54:50.786Z,216
2019-03-08T09:55:50.323Z,216
2019-03-08T09:56:50.301Z,232
2019-03-08T09:57:52.149Z,228
2019-03-08T09:58:50.265Z,164
2019-03-08T09:59:50.236Z,116
2019-03-08T10:00:53.055Z,140
2019-03-08T10:01:50.230Z,168
2019-03-08T10:02:50.172Z,200
2019-03-08T10:03:53.480Z,192
2019-03-08T10:04:50.133Z,160
2019-03-08T10:05:50.182Z,136
2019-03-08T10:06:49.875Z,136
2019-03-08T10:07:50.817Z,156
2019-03-08T10:08:50.690Z,200
2019-03-08T10:09:50.035Z,216
2019-03-08T10:10:50.027Z,280
2019-03-08T10:11:49.739Z,384
2019-03-08T10:12:49.783Z,460
2019-03-08T10:13:49.940Z,484
2019-03-08T10:14:50.025Z,356
2019-03-08T10:15:49.656Z,304
2019-03-08T10:16:50.380Z,324
2019-03-08T10:17:49.875Z,448
2019-03-08T10:18:50.149Z,516
2019-03-08T10:19:50.216Z,524
2019-03-08T10:20:50.309Z,684
2019-03-08T10:21:50.524Z,708
2019-03-08T10:22:49.564Z,692
2019-03-08T10:23:49.858Z,672
2019-03-08T10:24:50.540Z,1016
2019-03-08T10:25:49.705Z,1048
2019-03-08T10:26:49.798Z,1228
2019-03-08T10:27:50.245Z,692
2019-03-08T10:28:49.676Z,1348
2019-03-08T10:29:49.637Z,788
2019-03-08T10:30:50.012Z,628
2019-03-08T10:31:49.562Z,644
2019-03-08T10:32:49.994Z,712
2019-03-08T10:33:53.892Z,588
2019-03-08T10:34:49.504Z,520
2019-03-08T10:35:49.470Z,404
2019-03-08T10:36:49.453Z,484
2019-03-08T10:37:49.448Z,748
2019-03-08T10:38:51.007Z,664
2019-03-08T10:39:49.384Z,608
2019-03-08T10:40:49.901Z,528
2019-03-08T10:41:49.570Z,476
2019-03-08T10:42:49.520Z,452
2019-03-08T10:43:49.296Z,452
2019-03-08T10:44:49.612Z,528
2019-03-08T10:45:49.549Z,584
2019-03-08T10:46:49.303Z,732
2019-03-08T10:47:58.096Z,752
2019-03-08T10:48:49.473Z,760
2019-03-08T10:49:57.718Z,652
2019-03-08T10:50:49.196Z,644
2019-03-08T10:51:49.130Z,656
2019-03-08T10:52:50.133Z,912
2019-03-08T10:53:48.884Z,832
2019-03-08T10:54:49.149Z,1044
2019-03-08T10:55:49.001Z,700
2019-03-08T10:56:49.530Z,596
2019-03-08T10:57:49.111Z,524
2019-03-08T10:58:49.028Z,452
2019-03-08T10:59:49.003Z,1252
2019-03-08T11:00:48.960Z,1088
2019-03-08T11:01:48.924Z,928
2019-03-08T11:02:50.629Z,944
2019-03-08T11:03:48.928Z,872
2019-03-08T11:04:49.367Z,940
2019-03-08T11:05:48.635Z,908
2019-03-08T11:06:48.819Z,780
2019-03-08T11:07:48.825Z,676
2019-03-08T11:08:48.878Z,704
2019-03-08T11:09:48.905Z,772
2019-03-08T11:10:50.817Z,712
2019-03-08T11:11:49.143Z,616
2019-03-08T11:12:49.558Z,532
2019-03-08T11:13:50.746Z,396
2019-03-08T11:14:48.661Z,396
2019-03-08T11:15:49.323Z,528
2019-03-08T11:16:50.649Z,468
2019-03-08T11:17:57.856Z,516
2019-03-08T11:18:48.570Z,1624
2019-03-08T11:19:48.593Z,504
2019-03-08T11:20:49.155Z,408
2019-03-08T11:21:48.486Z,356
2019-03-08T11:22:48.504Z,344
2019-03-08T11:23:48.465Z,256
2019-03-08T11:24:48.430Z,220
2019-03-08T11:25:49.138Z,284
2019-03-08T11:26:48.401Z,344
2019-03-08T11:27:48.368Z,272
2019-03-08T11:28:48.705Z,180
2019-03-08T11:29:48.302Z,156
2019-03-08T11:30:56.297Z,160
2019-03-08T11:31:48.288Z,172
2019-03-08T11:32:48.813Z,968
2019-03-08T11:33:48.227Z,896
2019-03-08T11:34:56.831Z,820
2019-03-08T11:35:48.189Z,836
2019-03-08T11:36:48.677Z,780
2019-03-08T11:37:48.233Z,816
2019-03-08T11:38:48.173Z,636
2019-03-08T11:39:48.108Z,344
2019-03-08T11:40:48.288Z,700
2019-03-08T11:41:48.200Z,648
2019-03-08T11:42:48.165Z,684
2019-03-08T11:43:48.154Z,672
2019-03-08T11:44:48.896Z,604
2019-03-08T11:45:48.007Z,660
2019-03-08T11:46:47.975Z,348
2019-03-08T11:47:48.082Z,284
2019-03-08T11:48:49.095Z,204
2019-03-08T11:49:49.687Z,192
2019-03-08T11:50:47.874Z,284
2019-03-08T11:51:48.030Z,312
2019-03-08T11:52:48.417Z,296
2019-03-08T11:53:55.878Z,240
2019-03-08T11:54:48.328Z,204
2019-03-08T11:55:48.599Z,212
2019-03-08T11:56:55.788Z,268
2019-03-08T11:57:47.834Z,240
2019-03-08T11:58:47.682Z,220
2019-03-08T11:59:49.062Z,200
2019-03-08T12:00:48.156Z,196
2019-03-08T12:01:47.675Z,176
2019-03-08T12:02:48.782Z,156
2019-03-08T12:03:48.200Z,144
2019-03-08T12:04:48.946Z,140
2019-03-08T12:05:47.322Z,140
2019-03-08T12:06:47.591Z,152
2019-03-08T12:07:49.700Z,472
2019-03-08T12:08:47.859Z,480
2019-03-08T12:09:47.469Z,348
2019-03-08T12:10:47.503Z,480
2019-03-08T12:11:47.432Z,480
2019-03-08T12:12:48.984Z,288
2019-03-08T12:13:47.385Z,292
2019-03-08T12:14:47.549Z,628
2019-03-08T12:15:47.344Z,392
2019-03-08T12:16:47.767Z,372
2019-03-08T12:17:47.279Z,464
2019-03-08T12:18:47.289Z,324
2019-03-08T12:19:47.275Z,324
2019-03-08T12:20:47.256Z,316
2019-03-08T12:21:47.235Z,308
2019-03-08T12:22:47.186Z,328
2019-03-08T12:23:47.163Z,480
2019-03-08T12:24:47.548Z,496
2019-03-08T12:25:48.105Z,720
2019-03-08T12:26:47.166Z,392
2019-03-08T12:27:48.023Z,488
2019-03-08T12:28:47.278Z,408
2019-03-08T12:29:47.872Z,244
2019-03-08T12:30:48.083Z,224
2019-03-08T12:31:47.256Z,212
2019-03-08T12:32:47.223Z,200
2019-03-08T12:33:47.012Z,224
2019-03-08T12:34:48.237Z,224
2019-03-08T12:35:47.580Z,208
2019-03-08T12:36:47.425Z,188
2019-03-08T12:37:47.349Z,468
2019-03-08T12:38:47.560Z,492
2019-03-08T12:39:46.885Z,496
2019-03-08T12:40:48.309Z,172
2019-03-08T12:41:47.485Z,160
2019-03-08T12:42:47.116Z,156
2019-03-08T12:43:47.730Z,160
2019-03-08T12:44:46.687Z,164
2019-03-08T12:45:47.579Z,172
2019-03-08T12:46:46.857Z,176
2019-03-08T12:47:46.717Z,188
2019-03-08T12:48:46.817Z,196
2019-03-08T12:49:47.151Z,216
2019-03-08T12:50:46.921Z,200
2019-03-08T12:51:47.580Z,192
2019-03-08T12:52:47.594Z,196
2019-03-08T12:53:46.807Z,192
2019-03-08T12:54:47.535Z,216
2019-03-08T12:55:46.685Z,228
2019-03-08T12:56:46.967Z,216
2019-03-08T12:57:46.549Z,268
2019-03-08T12:58:46.423Z,292
2019-03-08T12:59:46.413Z,320
2019-03-08T13:00:46.181Z,252
2019-03-08T13:01:46.425Z,256
2019-03-08T13:02:46.366Z,260
2019-03-08T13:03:46.459Z,280
2019-03-08T13:04:46.347Z,320
2019-03-08T13:05:48.943Z,716
2019-03-08T13:06:46.250Z,896
2019-03-08T13:07:46.236Z,944
2019-03-08T13:08:46.011Z,852
2019-03-08T13:09:46.198Z,800
2019-03-08T13:10:46.239Z,788
2019-03-08T13:11:46.275Z,776
2019-03-08T13:12:46.125Z,748
2019-03-08T13:13:46.657Z,740
2019-03-08T13:14:46.100Z,256
2019-03-08T13:15:46.110Z,252
2019-03-08T13:16:46.059Z,276
2019-03-08T13:17:46.151Z,264
2019-03-08T13:18:46.022Z,240
2019-03-08T13:19:45.989Z,228
2019-03-08T13:20:45.989Z,236
2019-03-08T13:21:46.247Z,240
2019-03-08T13:22:45.911Z,256
2019-03-08T13:23:45.934Z,244
2019-03-08T13:24:45.880Z,224
2019-03-08T13:25:45.876Z,192
2019-03-08T13:26:45.822Z,244
2019-03-08T13:27:45.817Z,248
2019-03-08T13:28:45.845Z,264
2019-03-08T13:29:46.447Z,288
2019-03-08T13:30:45.758Z,240
2019-03-08T13:31:45.741Z,192
2019-03-08T13:32:47.689Z,176
2019-03-08T13:33:45.700Z,256
2019-03-08T13:34:45.966Z,312
2019-03-08T13:35:45.636Z,256
2019-03-08T13:36:45.671Z,208
2019-03-08T13:37:46.246Z,168
2019-03-08T13:38:45.601Z,168
2019-03-08T13:39:45.600Z,172
2019-03-08T13:40:45.606Z,176
2019-03-08T13:41:45.522Z,180
2019-03-08T13:42:45.527Z,216
2019-03-08T13:43:45.487Z,264
2019-03-08T13:44:45.561Z,336
2019-03-08T13:45:45.547Z,308
2019-03-08T13:46:45.417Z,280
2019-03-08T13:47:45.132Z,244
2019-03-08T13:48:45.470Z,204
2019-03-08T13:49:45.404Z,240
2019-03-08T13:50:45.353Z,248
2019-03-08T13:51:45.334Z,184
2019-03-08T13:52:45.431Z,160
2019-03-08T13:53:45.609Z,152
2019-03-08T13:54:45.234Z,140
2019-03-08T13:55:45.223Z,152
2019-03-08T13:56:45.246Z,164
2019-03-08T13:57:45.181Z,188
2019-03-08T13:58:45.149Z,184
2019-03-08T13:59:45.341Z,232
2019-03-08T14:00:45.171Z,288
2019-03-08T14:01:45.577Z,344
2019-03-08T14:02:45.234Z,356
2019-03-08T14:03:44.813Z,356
2019-03-08T14:04:45.084Z,368
2019-03-08T14:05:45.142Z,376
2019-03-08T14:06:45.029Z,372
2019-03-08T14:07:45.039Z,372
2019-03-08T14:08:44.690Z,400
2019-03-08T14:09:45.395Z,420
2019-03-08T14:10:44.922Z,460
2019-03-08T14:11:44.879Z,500
2019-03-08T14:12:44.866Z,420
2019-03-08T14:13:44.839Z,400